createdAt,value
2022-09-01T00:00:22.569Z,19.28000069
2022-09-01T00:02:17.716Z,19.27000046
2022-09-01T00:03:09.775Z,19.26000023
2022-09-01T00:04:10.658Z,19.26000023
2022-09-01T00:05:06.477Z,19.22999954
2022-09-01T00:06:06.682Z,19.22999954
2022-09-01T00:07:00.891Z,19.20999908
2022-09-01T00:08:03.191Z,19.19000053
2022-09-01T00:09:03.045Z,19.19000053
2022-09-01T00:09:56.774Z,19.17000008
2022-09-01T00:11:02.761Z,19.20000076
2022-09-01T00:12:57.037Z,19.18000031
2022-09-01T00:13:51.612Z,19.17000008
2022-09-01T00:15:38.311Z,19.22999954
2022-09-01T00:17:21.150Z,19.30999947
2022-09-01T00:18:21.256Z,19.29000092
2022-09-01T00:19:19.835Z,19.27000046
2022-09-01T00:20:21.917Z,19.21999931
2022-09-01T00:21:21.078Z,19.20999908
2022-09-01T00:22:16.373Z,19.18000031
2022-09-01T00:23:16.328Z,19.17000008
2022-09-01T00:24:12.077Z,19.15999985
2022-09-01T00:25:12.233Z,19.14999962
2022-09-01T00:26:09.218Z,19.14999962
2022-09-01T00:27:13.148Z,19.10000038
2022-09-01T00:28:12.401Z,19.07999992
2022-09-01T00:29:11.573Z,19.04999924
2022-09-01T00:30:06.231Z,19.02000046
2022-09-01T00:31:08.845Z,19.01000023
2022-09-01T00:32:18.240Z,18.98999977
2022-09-01T00:33:17.703Z,19.03000069
2022-09-01T00:34:21.040Z,19.06999969
2022-09-01T00:35:16.975Z,19.04999924
2022-09-01T00:37:14.031Z,19.02000046
2022-09-01T00:38:15.323Z,18.98999977
2022-09-01T00:39:19.931Z,18.98999977
2022-09-01T00:40:12.432Z,18.96999931
2022-09-01T00:41:13.636Z,18.97999954
2022-09-01T00:42:11.791Z,18.96999931
2022-09-01T00:43:11.529Z,18.94000053
2022-09-01T00:44:06.083Z,18.92000008
2022-09-01T00:45:05.920Z,18.89999962
2022-09-01T00:46:01.947Z,18.89999962
2022-09-01T00:47:58.007Z,18.88999939
2022-09-01T00:49:01.177Z,18.87999916
2022-09-01T00:49:56.530Z,18.86000061
2022-09-01T00:50:57.444Z,18.84000015
2022-09-01T00:53:05.468Z,18.79999924
2022-09-01T00:54:00.012Z,18.80999947
2022-09-01T00:55:01.817Z,18.79000092
2022-09-01T00:55:59.343Z,18.79999924
2022-09-01T00:56:57.888Z,18.81999969
2022-09-01T00:57:56.722Z,18.79000092
2022-09-01T00:58:58.488Z,18.79000092
2022-09-01T00:59:57.444Z,18.78000069
2022-09-01T01:01:47.007Z,18.87000084
2022-09-01T01:02:28.630Z,18.92000008
2022-09-01T01:03:26.702Z,18.96999931
2022-09-01T01:04:25.514Z,18.97999954
2022-09-01T01:05:23.458Z,18.95000076
2022-09-01T01:06:23.787Z,18.95000076
2022-09-01T01:07:19.227Z,18.93000031
2022-09-01T01:08:23.216Z,18.89999962
2022-09-01T01:09:17.639Z,18.88999939
2022-09-01T01:10:18.127Z,18.87000084
2022-09-01T01:11:13.031Z,18.86000061
2022-09-01T01:12:13.017Z,18.87000084
2022-09-01T01:13:08.398Z,18.85000038
2022-09-01T01:14:11.032Z,18.85000038
2022-09-01T01:15:05.406Z,18.82999992
2022-09-01T01:16:02.968Z,18.84000015
2022-09-01T01:17:57.300Z,18.79999924
2022-09-01T01:19:01.043Z,18.79000092
2022-09-01T01:20:02.422Z,18.77000046
2022-09-01T01:20:56.620Z,18.77000046
2022-09-01T01:22:00.402Z,18.77000046
2022-09-01T01:22:55.663Z,18.76000023
2022-09-01T01:23:55.952Z,18.76000023
2022-09-01T01:24:51.758Z,18.73999977
2022-09-01T01:25:52.088Z,18.73999977
2022-09-01T01:26:48.385Z,18.76000023
2022-09-01T01:27:53.621Z,18.73999977
2022-09-01T01:28:46.943Z,18.72999954
2022-09-01T01:29:56.255Z,18.76000023
2022-09-01T01:30:48.227Z,18.79000092
2022-09-01T01:32:41.840Z,18.80999947
2022-09-01T01:33:40.739Z,18.79999924
2022-09-01T01:34:43.655Z,18.79000092
2022-09-01T01:35:38.298Z,18.77000046
2022-09-01T01:36:37.958Z,18.77000046
2022-09-01T01:37:32.714Z,18.76000023
2022-09-01T01:38:32.158Z,18.73999977
2022-09-01T01:39:28.170Z,18.70999908
2022-09-01T01:40:27.417Z,18.70000076
2022-09-01T01:42:25.380Z,18.70000076
2022-09-01T01:43:53.522Z,18.69000053
2022-09-01T01:44:37.587Z,18.68000031
2022-09-01T01:45:39.319Z,18.69000053
2022-09-01T01:47:39.135Z,18.68000031
2022-09-01T01:48:42.115Z,18.64999962
2022-09-01T01:49:37.653Z,18.63999939
2022-09-01T01:50:44.071Z,18.62000084
2022-09-01T01:51:42.054Z,18.63999939
2022-09-01T01:52:39.822Z,18.62000084
2022-09-01T01:52:45.461Z,18.62000084
2022-09-01T01:53:45.249Z,18.61000061
2022-09-01T01:54:40.628Z,18.61000061
2022-09-01T01:55:48.495Z,18.61000061
2022-09-01T01:56:45.066Z,18.62999916
2022-09-01T01:57:48.129Z,18.59000015
2022-09-01T01:58:46.253Z,18.55999947
2022-09-01T01:59:46.034Z,18.54999924
2022-09-01T02:00:46.020Z,18.54000092
2022-09-01T02:01:42.346Z,18.54999924
2022-09-01T02:02:41.775Z,18.53000069
2022-09-01T02:03:41.493Z,18.52000046
2022-09-01T02:04:42.649Z,18.51000023
2022-09-01T02:05:42.805Z,18.5
2022-09-01T02:07:38.203Z,18.5
2022-09-01T02:08:38.388Z,18.5
2022-09-01T02:09:39.470Z,18.48999977
2022-09-01T02:10:34.991Z,18.46999931
2022-09-01T02:11:39.853Z,18.48999977
2022-09-01T02:12:40.117Z,18.45000076
2022-09-01T02:13:40.532Z,18.44000053
2022-09-01T02:14:39.561Z,18.40999985
2022-09-01T02:15:44.584Z,18.38999939
2022-09-01T02:17:41.447Z,18.37999916
2022-09-01T02:18:40.621Z,18.37000084
2022-09-01T02:19:38.722Z,18.34000015
2022-09-01T02:20:35.378Z,18.32999992
2022-09-01T02:22:30.889Z,18.35000038
2022-09-01T02:23:29.071Z,18.35000038
2022-09-01T02:24:29.714Z,18.35000038
2022-09-01T02:25:29.970Z,18.32999992
2022-09-01T02:26:31.321Z,18.34000015
2022-09-01T02:27:32.853Z,18.32999992
2022-09-01T02:28:30.194Z,18.29999924
2022-09-01T02:29:40.166Z,18.28000069
2022-09-01T02:29:43.493Z,18.28000069
2022-09-01T02:32:23.090Z,18.45999908
2022-09-01T02:33:25.879Z,18.46999931
2022-09-01T02:34:21.361Z,18.44000053
2022-09-01T02:35:26.746Z,18.38999939
2022-09-01T02:38:23.873Z,18.45000076
2022-09-01T02:39:05.007Z,18.47999954
2022-09-01T02:40:12.616Z,18.48999977
2022-09-01T02:41:13.030Z,18.48999977
2022-09-01T02:42:09.329Z,18.45999908
2022-09-01T02:43:27.122Z,18.38999939
2022-09-01T02:44:28.763Z,18.34000015
2022-09-01T02:45:28.697Z,18.29999924
2022-09-01T02:46:30.761Z,18.29999924
2022-09-01T02:47:29.878Z,18.26000023
2022-09-01T02:48:30.778Z,18.23999977
2022-09-01T02:49:26.685Z,18.20000076
2022-09-01T02:50:34.994Z,18.18000031
2022-09-01T02:51:34.744Z,18.18000031
2022-09-01T02:52:33.142Z,18.12000084
2022-09-01T02:53:33.073Z,18.11000061
2022-09-01T02:54:39.000Z,18.04999924
2022-09-01T02:55:38.180Z,18
2022-09-01T02:56:42.485Z,18
2022-09-01T02:57:51.392Z,17.93000031
2022-09-01T02:58:47.320Z,17.89999962
2022-09-01T02:59:50.726Z,17.87000084
2022-09-01T03:00:45.642Z,17.86000061
2022-09-01T03:01:46.736Z,17.87000084
2022-09-01T03:02:51.391Z,17.82999992
2022-09-01T03:03:47.487Z,17.80999947
2022-09-01T03:04:54.380Z,17.79000092
2022-09-01T03:05:51.107Z,17.77000046
2022-09-01T03:06:58.575Z,17.79999924
2022-09-01T03:07:56.909Z,17.78000069
2022-09-01T03:08:54.768Z,17.76000023
2022-09-01T03:10:00.588Z,17.75
2022-09-01T03:10:57.416Z,17.71999931
2022-09-01T03:12:22.650Z,17.73999977
2022-09-01T03:13:03.383Z,17.73999977
2022-09-01T03:14:01.517Z,17.76000023
2022-09-01T03:15:01.133Z,17.75
2022-09-01T03:15:57.816Z,17.75
2022-09-01T03:16:57.509Z,17.75
2022-09-01T03:17:55.586Z,17.70000076
2022-09-01T03:18:55.211Z,17.68000031
2022-09-01T03:19:50.578Z,17.68000031
2022-09-01T03:20:53.904Z,17.65999985
2022-09-01T03:21:49.104Z,17.64999962
2022-09-01T03:22:54.366Z,17.60000038
2022-09-01T03:23:48.716Z,17.60000038
2022-09-01T03:24:56.455Z,17.55999947
2022-09-01T03:25:52.860Z,17.53000069
2022-09-01T03:27:54.225Z,17.51000023
2022-09-01T03:28:59.907Z,17.48999977
2022-09-01T03:30:01.653Z,17.45000076
2022-09-01T03:31:00.209Z,17.42000008
2022-09-01T03:32:03.194Z,17.42000008
2022-09-01T03:33:02.669Z,17.36000061
2022-09-01T03:33:57.478Z,17.34000015
2022-09-01T03:35:04.956Z,17.31999969
2022-09-01T03:36:03.387Z,17.29000092
2022-09-01T03:38:03.436Z,17.29000092
2022-09-01T03:39:01.132Z,17.28000069
2022-09-01T03:40:00.736Z,17.26000023
2022-09-01T03:40:56.373Z,17.21999931
2022-09-01T03:41:57.281Z,17.21999931
2022-09-01T03:42:52.715Z,17.18000031
2022-09-01T03:43:52.221Z,17.14999962
2022-09-01T03:44:50.179Z,17.14999962
2022-09-01T03:45:00.857Z,17.14999962
2022-09-01T03:45:56.639Z,17.12999916
2022-09-01T03:47:24.380Z,17.15999985
2022-09-01T03:48:08.239Z,17.17000008
2022-09-01T03:49:09.924Z,17.17000008
2022-09-01T03:50:12.693Z,17.14999962
2022-09-01T03:51:14.913Z,17.11000061
2022-09-01T03:52:15.090Z,17.06999969
2022-09-01T03:53:22.487Z,17.03000069
2022-09-01T03:54:26.100Z,17.01000023
2022-09-01T03:55:21.483Z,16.96999931
2022-09-01T03:56:24.071Z,16.95999908
2022-09-01T03:57:24.928Z,16.96999931
2022-09-01T03:58:25.208Z,16.93000031
2022-09-01T03:59:26.779Z,16.93000031
2022-09-01T04:00:32.292Z,16.89999962
2022-09-01T04:01:32.173Z,16.90999985
2022-09-01T04:02:31.293Z,16.87000084
2022-09-01T04:03:32.960Z,16.84000015
2022-09-01T04:04:33.213Z,16.80999947
2022-09-01T04:05:31.128Z,16.79999924
2022-09-01T04:07:31.911Z,16.79999924
2022-09-01T04:08:33.265Z,16.78000069
2022-09-01T04:09:33.298Z,16.75
2022-09-01T04:10:31.217Z,16.73999977
2022-09-01T04:12:28.763Z,16.77000046
2022-09-01T04:13:30.269Z,16.75
2022-09-01T04:14:29.989Z,16.71999931
2022-09-01T04:15:24.962Z,16.70999908
2022-09-01T04:16:24.273Z,16.72999954
2022-09-01T04:17:19.417Z,16.72999954
2022-09-01T04:18:21.442Z,16.70999908
2022-09-01T04:19:21.715Z,16.70999908
2022-09-01T04:20:21.036Z,16.70000076
2022-09-01T04:22:15.575Z,16.67000008
2022-09-01T04:23:19.053Z,16.65999985
2022-09-01T04:24:45.167Z,16.61000061
2022-09-01T04:25:24.496Z,16.62000084
2022-09-01T04:27:24.963Z,16.64999962
2022-09-01T04:28:25.621Z,16.62999916
2022-09-01T04:29:27.514Z,16.59000015
2022-09-01T04:30:25.006Z,16.55999947
2022-09-01T04:31:31.941Z,16.53000069
2022-09-01T04:32:27.123Z,16.52000046
2022-09-01T04:33:26.909Z,16.51000023
2022-09-01T04:34:27.305Z,16.47999954
2022-09-01T04:35:23.568Z,16.45999908
2022-09-01T04:37:22.815Z,16.45999908
2022-09-01T04:38:23.404Z,16.44000053
2022-09-01T04:39:23.383Z,16.43000031
2022-09-01T04:40:22.825Z,16.43000031
2022-09-01T04:42:21.603Z,16.43000031
2022-09-01T04:43:16.911Z,16.42000008
2022-09-01T04:44:18.488Z,16.39999962
2022-09-01T04:45:20.462Z,16.42000008
2022-09-01T04:45:20.917Z,16.42000008
2022-09-01T04:46:25.395Z,16.45000076
2022-09-01T04:47:26.411Z,16.44000053
2022-09-01T04:48:20.180Z,16.43000031
2022-09-01T04:49:24.329Z,16.39999962
2022-09-01T04:50:20.730Z,16.39999962
2022-09-01T04:51:17.234Z,16.40999985
2022-09-01T04:52:17.431Z,16.37999916
2022-09-01T04:53:13.647Z,16.35000038
2022-09-01T04:54:17.609Z,16.34000015
2022-09-01T04:55:12.944Z,16.32999992
2022-09-01T04:56:15.648Z,16.32999992
2022-09-01T04:57:13.699Z,16.34000015
2022-09-01T04:58:23.377Z,16.31999969
2022-09-01T04:59:27.583Z,16.30999947
2022-09-01T05:00:28.304Z,16.29000092
2022-09-01T05:01:27.613Z,16.29000092
2022-09-01T05:03:15.270Z,16.36000061
2022-09-01T05:05:01.332Z,16.47999954
2022-09-01T05:05:43.660Z,16.51000023
2022-09-01T05:06:45.563Z,16.53000069
2022-09-01T05:07:47.539Z,16.51000023
2022-09-01T05:08:47.689Z,16.45000076
2022-09-01T05:09:48.042Z,16.42000008
2022-09-01T05:10:47.116Z,16.38999939
2022-09-01T05:12:46.065Z,16.35000038
2022-09-01T05:13:58.040Z,16.34000015
2022-09-01T05:14:54.319Z,16.32999992
2022-09-01T05:15:54.906Z,16.30999947
2022-09-01T05:17:52.305Z,16.34000015
2022-09-01T05:18:55.983Z,16.32999992
2022-09-01T05:19:58.841Z,16.30999947
2022-09-01T05:21:01.120Z,16.29000092
2022-09-01T05:21:58.664Z,16.29000092
2022-09-01T05:23:05.637Z,16.27000046
2022-09-01T05:24:05.738Z,16.27000046
2022-09-01T05:25:07.774Z,16.28000069
2022-09-01T05:26:06.422Z,16.29000092
2022-09-01T05:28:09.782Z,16.31999969
2022-09-01T05:29:05.498Z,16.31999969
2022-09-01T05:30:07.593Z,16.34000015
2022-09-01T05:31:06.785Z,16.37000084
2022-09-01T05:33:08.069Z,16.39999962
2022-09-01T05:34:14.179Z,16.42000008
2022-09-01T05:35:13.012Z,16.44000053
2022-09-01T05:36:12.403Z,16.47999954
2022-09-01T05:37:12.100Z,16.51000023
2022-09-01T05:38:07.850Z,16.51000023
2022-09-01T05:39:14.467Z,16.51000023
2022-09-01T05:40:09.042Z,16.53000069
2022-09-01T05:41:40.388Z,16.59000015
2022-09-01T05:42:21.004Z,16.67000008
2022-09-01T05:43:22.729Z,16.69000053
2022-09-01T05:44:20.850Z,16.70000076
2022-09-01T05:45:19.737Z,16.68000031
2022-09-01T05:46:19.512Z,16.69000053
2022-09-01T05:47:20.652Z,16.70000076
2022-09-01T05:48:15.548Z,16.69000053
2022-09-01T05:49:10.883Z,16.70000076
2022-09-01T05:50:14.340Z,16.70999908
2022-09-01T05:51:17.651Z,16.70999908
2022-09-01T05:51:33.387Z,16.70999908
2022-09-01T05:51:42.266Z,16.70999908
2022-09-01T05:53:05.318Z,16.80999947
2022-09-01T05:53:11.054Z,16.80999947
2022-09-01T05:54:00.606Z,16.82999992
2022-09-01T05:55:00.339Z,16.85000038
2022-09-01T05:55:56.392Z,16.86000061
2022-09-01T05:57:51.563Z,16.81999969
2022-09-01T05:59:49.681Z,16.80999947
2022-09-01T06:00:53.236Z,16.82999992
2022-09-01T06:01:50.043Z,16.86000061
2022-09-01T06:02:46.762Z,16.85000038
2022-09-01T06:03:41.554Z,16.84000015
2022-09-01T06:04:42.763Z,16.80999947
2022-09-01T06:05:38.650Z,16.80999947
2022-09-01T06:06:54.979Z,16.81999969
2022-09-01T06:07:01.748Z,16.81999969
2022-09-01T06:07:06.040Z,16.81999969
2022-09-01T06:07:37.293Z,16.82999992
2022-09-01T06:08:32.962Z,16.87999916
2022-09-01T06:09:33.384Z,16.87999916
2022-09-01T06:10:34.220Z,16.87999916
2022-09-01T06:11:33.234Z,16.86000061
2022-09-01T06:12:28.590Z,16.87000084
2022-09-01T06:13:28.848Z,16.87999916
2022-09-01T06:14:25.397Z,16.87000084
2022-09-01T06:15:24.955Z,16.85000038
2022-09-01T06:17:28.105Z,16.84000015
2022-09-01T06:18:22.971Z,16.81999969
2022-09-01T06:19:22.881Z,16.82999992
2022-09-01T06:20:19.907Z,16.80999947
2022-09-01T06:21:21.706Z,16.81999969
2022-09-01T06:23:13.224Z,16.80999947
2022-09-01T06:24:14.428Z,16.79999924
2022-09-01T06:25:08.319Z,16.79000092
2022-09-01T06:26:12.106Z,16.79999924
2022-09-01T06:27:04.804Z,16.79999924
2022-09-01T06:28:04.727Z,16.79999924
2022-09-01T06:29:01.000Z,16.79999924
2022-09-01T06:30:02.380Z,16.79000092
2022-09-01T06:31:01.449Z,16.76000023
2022-09-01T06:32:00.489Z,16.79000092
2022-09-01T06:32:55.256Z,16.78000069
2022-09-01T06:33:55.593Z,16.78000069
2022-09-01T06:34:51.142Z,16.75
2022-09-01T06:35:53.866Z,16.70999908
2022-09-01T06:36:46.460Z,16.75
2022-09-01T06:37:47.518Z,16.79000092
2022-09-01T06:38:41.968Z,16.81999969
2022-09-01T06:39:42.135Z,16.81999969
2022-09-01T06:40:37.173Z,16.81999969
2022-09-01T06:42:32.562Z,16.87000084
2022-09-01T06:43:32.791Z,16.90999985
2022-09-01T06:44:40.476Z,16.93000031
2022-09-01T06:44:41.208Z,16.93000031
2022-09-01T06:47:02.159Z,17.02000046
2022-09-01T06:47:08.022Z,17.17000008
2022-09-01T06:48:07.165Z,17.36000061
2022-09-01T06:49:08.011Z,17.44000053
2022-09-01T06:50:03.608Z,17.45000076
2022-09-01T06:51:15.926Z,17.44000053
2022-09-01T06:51:21.261Z,17.44000053
2022-09-01T06:52:02.367Z,17.44000053
2022-09-01T06:53:59.853Z,17.51000023
2022-09-01T06:55:03.390Z,17.54999924
2022-09-01T06:55:08.163Z,17.54999924
2022-09-01T06:55:58.715Z,17.54999924
2022-09-01T06:56:54.167Z,17.59000015
2022-09-01T06:58:04.734Z,17.60000038
2022-09-01T06:58:05.967Z,17.60000038
2022-09-01T06:58:53.154Z,17.62999916
2022-09-01T06:59:52.495Z,17.65999985
2022-09-01T07:00:49.001Z,17.70000076
2022-09-01T07:01:52.375Z,17.70000076
2022-09-01T07:02:44.969Z,17.69000053
2022-09-01T07:03:45.178Z,17.70999908
2022-09-01T07:04:40.649Z,17.72999954
2022-09-01T07:06:02.426Z,17.75
2022-09-01T07:06:06.435Z,17.75
2022-09-01T07:08:04.701Z,17.87999916
2022-09-01T07:08:06.235Z,17.87999916
2022-09-01T07:09:19.021Z,17.98999977
2022-09-01T07:09:47.749Z,18.11000061
2022-09-01T07:09:47.972Z,18.11000061
2022-09-01T07:09:50.138Z,18.11000061
2022-09-01T07:11:19.594Z,18.22999954
2022-09-01T07:12:35.078Z,18.37000084
2022-09-01T07:13:38.792Z,18.45000076
2022-09-01T07:15:33.971Z,18.48999977
2022-09-01T07:16:31.921Z,18.54999924
2022-09-01T07:16:42.094Z,18.55999947
2022-09-01T07:16:51.876Z,18.55999947
2022-09-01T07:17:34.439Z,18.67000008
2022-09-01T07:18:34.471Z,18.73999977
2022-09-01T07:19:48.891Z,18.73999977
2022-09-01T07:19:51.537Z,18.73999977
2022-09-01T07:20:31.218Z,18.78000069
2022-09-01T07:21:42.436Z,18.77000046
2022-09-01T07:22:06.701Z,18.77000046
2022-09-01T07:22:37.178Z,18.79999924
2022-09-01T07:23:02.970Z,18.79999924
2022-09-01T07:24:10.386Z,18.88999939
2022-09-01T07:24:32.954Z,19.01000023
2022-09-01T07:26:00.471Z,19.07999992
2022-09-01T07:26:01.325Z,19.07999992
2022-09-01T07:26:01.431Z,19.07999992
2022-09-01T07:27:36.262Z,19.09000015
2022-09-01T07:27:36.271Z,19.09000015
2022-09-01T07:27:40.610Z,19.09000015
2022-09-01T07:28:37.324Z,19.15999985
2022-09-01T07:28:37.811Z,19.15999985
2022-09-01T07:29:32.265Z,19.20999908
2022-09-01T07:30:30.239Z,19.26000023
2022-09-01T07:32:41.178Z,19.27000046
2022-09-01T07:32:47.866Z,19.28000069
2022-09-01T07:32:49.235Z,19.28000069
2022-09-01T07:33:41.962Z,19.34000015
2022-09-01T07:33:44.455Z,19.34000015
2022-09-01T07:33:51.662Z,19.34000015
2022-09-01T07:34:39.635Z,19.40999985
2022-09-01T07:34:41.441Z,19.40999985
2022-09-01T07:34:46.172Z,19.40999985
2022-09-01T07:35:31.400Z,19.45999908
2022-09-01T07:36:28.967Z,19.48999977
2022-09-01T07:39:49.986Z,19.56999969
2022-09-01T07:39:55.333Z,19.56999969
2022-09-01T07:39:57.486Z,17.44000053
2022-09-01T07:42:56.479Z,18.77000046
2022-09-01T07:42:58.863Z,19.53000069
2022-09-01T07:43:32.823Z,19.85000038
2022-09-01T07:44:32.345Z,19.87999916
2022-09-01T07:45:30.336Z,19.89999962
2022-09-01T07:46:37.957Z,19.88999939
2022-09-01T07:46:39.819Z,19.88999939
2022-09-01T07:47:53.449Z,19.93000031
2022-09-01T07:47:57.956Z,19.93000031
2022-09-01T07:48:37.203Z,19.97999954
2022-09-01T07:49:02.559Z,19.97999954
2022-09-01T07:49:54.797Z,20.10000038
2022-09-01T07:50:11.456Z,20.10000038
2022-09-01T07:50:12.589Z,20.10000038
2022-09-01T07:51:34.229Z,20.15999985
2022-09-01T07:51:35.044Z,20.15999985
2022-09-01T07:52:36.409Z,20.31999969
2022-09-01T07:53:34.430Z,20.38999939
2022-09-01T07:54:36.985Z,20.38999939
2022-09-01T07:55:34.962Z,20.40999985
2022-09-01T07:56:40.533Z,20.42000008
2022-09-01T07:57:37.678Z,20.44000053
2022-09-01T07:58:35.954Z,20.46999931
2022-09-01T07:59:37.071Z,20.54000092
2022-09-01T08:00:41.074Z,20.61000061
2022-09-01T08:02:37.821Z,20.70000076
2022-09-01T08:03:39.449Z,20.76000023
2022-09-01T08:04:37.595Z,20.81999969
2022-09-01T08:05:40.050Z,20.87999916
2022-09-01T08:06:38.599Z,20.90999985
2022-09-01T08:07:52.001Z,20.94000053
2022-09-01T08:07:52.792Z,20.94000053
2022-09-01T08:07:55.608Z,20.94000053
2022-09-01T08:10:12.204Z,21.21999931
2022-09-01T08:11:11.297Z,21.30999947
2022-09-01T08:12:12.022Z,21.38999939
2022-09-01T08:13:08.275Z,21.42000008
2022-09-01T08:14:09.125Z,21.44000053
2022-09-01T08:15:13.022Z,21.46999931
2022-09-01T08:15:37.973Z,21.46999931
2022-09-01T08:15:41.561Z,21.46999931
2022-09-01T08:16:08.316Z,21.53000069
2022-09-01T08:18:05.516Z,21.65999985
2022-09-01T08:19:04.542Z,21.70000076
2022-09-01T08:20:00.954Z,21.71999931
2022-09-01T08:21:01.597Z,21.77000046
2022-09-01T08:21:57.951Z,21.75
2022-09-01T08:22:58.974Z,21.80999947
2022-09-01T08:23:55.396Z,21.85000038
2022-09-01T08:24:56.690Z,21.87999916
2022-09-01T08:25:53.237Z,21.86000061
2022-09-01T08:27:59.837Z,21.92000008
2022-09-01T08:28:00.019Z,21.92000008
2022-09-01T08:28:56.025Z,21.95000076
2022-09-01T08:29:51.271Z,22
2022-09-01T08:30:52.519Z,22.04999924
2022-09-01T08:32:50.813Z,22.11000061
2022-09-01T08:33:47.523Z,22.17000008
2022-09-01T08:34:49.186Z,22.18000031
2022-09-01T08:35:45.923Z,22.18000031
2022-09-01T08:36:50.170Z,22.19000053
2022-09-01T08:37:44.627Z,22.20999908
2022-09-01T08:38:46.248Z,22.21999931
2022-09-01T08:39:43.396Z,22.28000069
2022-09-01T08:40:45.026Z,22.30999947
2022-09-01T08:42:46.498Z,22.31999969
2022-09-01T08:43:40.887Z,22.37999916
2022-09-01T08:44:42.734Z,22.39999962
2022-09-01T08:45:40.015Z,22.40999985
2022-09-01T08:47:55.934Z,22.45000076
2022-09-01T08:48:15.319Z,22.45000076
2022-09-01T08:48:28.700Z,22.45000076
2022-09-01T08:49:27.077Z,22.59000015
2022-09-01T08:50:27.083Z,22.62999916
2022-09-01T08:51:25.025Z,22.62000084
2022-09-01T08:53:22.653Z,22.69000053
2022-09-01T08:54:29.729Z,22.70000076
2022-09-01T08:54:32.140Z,22.70000076
2022-09-01T08:56:57.465Z,22.79000092
2022-09-01T08:58:05.217Z,22.88999939
2022-09-01T08:59:05.603Z,22.96999931
2022-09-01T09:00:04.286Z,22.93000031
2022-09-01T09:01:05.413Z,22.92000008
2022-09-01T09:02:03.883Z,22.81999969
2022-09-01T09:03:04.598Z,22.75
2022-09-01T09:04:02.542Z,22.68000031
2022-09-01T09:05:15.438Z,22.68000031
2022-09-01T09:05:16.266Z,22.68000031
2022-09-01T09:05:16.789Z,22.68000031
2022-09-01T09:06:03.829Z,22.71999931
2022-09-01T09:07:01.496Z,22.75
2022-09-01T09:08:06.979Z,22.79000092
2022-09-01T09:09:03.185Z,22.76000023
2022-09-01T09:10:00.495Z,22.81999969
2022-09-01T09:11:01.975Z,22.78000069
2022-09-01T09:11:59.135Z,22.77000046
2022-09-01T09:13:01.553Z,22.79999924
2022-09-01T09:13:57.818Z,22.79999924
2022-09-01T09:14:59.412Z,22.81999969
2022-09-01T09:16:07.298Z,22.82999992
2022-09-01T09:16:08.310Z,22.82999992
2022-09-01T09:16:09.053Z,22.82999992
2022-09-01T09:16:58.373Z,22.82999992
2022-09-01T09:17:59.794Z,22.79999924
2022-09-01T09:18:00.573Z,22.79999924
2022-09-01T09:18:59.771Z,22.80999947
2022-09-01T09:19:54.971Z,22.80999947
2022-09-01T09:20:58.415Z,22.84000015
2022-09-01T09:22:54.391Z,22.79999924
2022-09-01T09:23:51.161Z,22.81999969
2022-09-01T09:24:53.066Z,22.84000015
2022-09-01T09:25:50.645Z,22.81999969
2022-09-01T09:27:49.570Z,22.88999939
2022-09-01T09:28:51.391Z,22.94000053
2022-09-01T09:29:49.281Z,22.93000031
2022-09-01T09:30:50.994Z,22.96999931
2022-09-01T09:33:24.923Z,23
2022-09-01T09:33:46.496Z,23
2022-09-01T09:33:52.579Z,23.04000092
2022-09-01T09:34:50.724Z,23.09000015
2022-09-01T09:35:47.559Z,23.09000015
2022-09-01T09:36:55.309Z,23.04999924
2022-09-01T09:36:57.381Z,23.04999924
2022-09-01T09:37:49.173Z,23
2022-09-01T09:38:45.879Z,23.06999969
2022-09-01T09:39:49.902Z,23.04000092
2022-09-01T09:41:10.583Z,23.04999924
2022-09-01T09:41:12.264Z,23.04999924
2022-09-01T09:41:15.915Z,23.04999924
2022-09-01T09:41:46.322Z,23
2022-09-01T09:42:43.362Z,23.07999992
2022-09-01T09:43:47.576Z,23.04999924
2022-09-01T09:44:41.320Z,23.04000092
2022-09-01T09:45:42.745Z,23.04000092
2022-09-01T09:46:39.233Z,22.98999977
2022-09-01T09:47:44.631Z,22.95999908
2022-09-01T09:48:36.947Z,22.95000076
2022-09-01T09:49:44.229Z,22.96999931
2022-09-01T09:49:48.691Z,22.96999931
2022-09-01T09:49:49.022Z,22.96999931
2022-09-01T09:50:41.656Z,22.98999977
2022-09-01T09:51:36.115Z,23
2022-09-01T09:52:40.623Z,23
2022-09-01T09:53:35.094Z,22.98999977
2022-09-01T09:54:38.907Z,22.98999977
2022-09-01T09:55:33.292Z,22.95999908
2022-09-01T09:56:34.493Z,22.90999985
2022-09-01T09:57:57.627Z,22.92000008
2022-09-01T09:58:37.927Z,22.95000076
2022-09-01T09:59:56.959Z,22.98999977
2022-09-01T09:59:57.602Z,22.98999977
2022-09-01T09:59:58.819Z,22.98999977
2022-09-01T10:00:37.420Z,23.04000092
2022-09-01T10:01:34.099Z,23.07999992
2022-09-01T10:03:30.607Z,23.07999992
2022-09-01T10:04:31.225Z,23.10000038
2022-09-01T10:05:26.684Z,23.07999992
2022-09-01T10:06:27.222Z,23.06999969
2022-09-01T10:08:23.561Z,23.04999924
2022-09-01T10:09:22.052Z,23.04999924
2022-09-01T10:10:20.883Z,23.01000023
2022-09-01T10:11:17.253Z,23.01000023
2022-09-01T10:12:17.620Z,23.01000023
2022-09-01T10:13:13.798Z,23.01000023
2022-09-01T10:14:11.007Z,23.02000046
2022-09-01T10:15:13.979Z,23
2022-09-01T10:16:09.206Z,23
2022-09-01T10:18:19.991Z,22.97999954
2022-09-01T10:18:29.656Z,22.97999954
2022-09-01T10:19:07.163Z,22.97999954
2022-09-01T10:19:12.557Z,22.97999954
2022-09-01T10:19:59.998Z,23.02000046
2022-09-01T10:20:59.923Z,23.07999992
2022-09-01T10:21:07.059Z,23.07999992
2022-09-01T10:22:07.364Z,23.10000038
2022-09-01T10:23:03.816Z,23.10000038
2022-09-01T10:24:17.672Z,23.10000038
2022-09-01T10:24:21.122Z,23.10000038
2022-09-01T10:24:26.942Z,23.10000038
2022-09-01T10:25:03.332Z,23.10000038
2022-09-01T10:25:58.281Z,23.09000015
2022-09-01T10:27:54.856Z,23.07999992
2022-09-01T10:28:54.178Z,23.07999992
2022-09-01T10:29:49.621Z,23.06999969
2022-09-01T10:30:50.421Z,23.07999992
2022-09-01T10:32:54.269Z,22.98999977
2022-09-01T10:32:55.701Z,22.98999977
2022-09-01T10:33:47.808Z,22.96999931
2022-09-01T10:34:43.313Z,22.97999954
2022-09-01T10:35:44.554Z,22.95000076
2022-09-01T10:36:40.022Z,22.90999985
2022-09-01T10:38:35.664Z,22.87999916
2022-09-01T10:39:42.992Z,22.87000084
2022-09-01T10:39:43.296Z,22.87000084
2022-09-01T10:41:20.827Z,22.95000076
2022-09-01T10:42:01.214Z,22.96999931
2022-09-01T10:42:59.237Z,22.97999954
2022-09-01T10:44:02.230Z,22.98999977
2022-09-01T10:44:54.853Z,22.98999977
2022-09-01T10:45:58.706Z,22.95999908
2022-09-01T10:46:05.821Z,22.95999908